Time;durP1;ratioP1;P1;durP2;ratioP2;P2;SDS_P1;SDS_P2;PMS_P1;PMS_P2;Temp;Humidity;BMP_temperature;BMP_pressure;BME280_temperature;BME280_humidity;BME280_pressure;Samples;Min_cycle;Max_cycle;Signal;HPM_P1;HPM_P2
2022/10/25 00:00:44;;;;;;;2.47;0.80;;;13.40;99.90;;;;;;5034584;28;20296;-62
2022/10/25 00:03:13;;;;;;;0.60;0.53;;;13.40;99.90;;;;;;5034068;28;20209;-63
2022/10/25 00:05:41;;;;;;;0.50;0.50;;;13.30;99.90;;;;;;5033977;28;20229;-62
2022/10/25 00:08:09;;;;;;;0.63;0.63;;;13.40;99.90;;;;;;5033213;28;20746;-62
2022/10/25 00:10:36;;;;;;;1.57;0.90;;;13.30;99.90;;;;;;5033225;28;20298;-62
2022/10/25 00:13:03;;;;;;;0.57;0.57;;;13.30;99.90;;;;;;5032947;28;20209;-63
2022/10/25 00:15:30;;;;;;;0.50;0.50;;;13.30;99.90;;;;;;5032459;28;20665;-63
2022/10/25 00:17:57;;;;;;;0.73;0.73;;;13.30;99.90;;;;;;5033610;28;20295;-62
2022/10/25 00:20:25;;;;;;;1.70;0.53;;;13.30;99.90;;;;;;5032319;28;20208;-62
2022/10/25 00:22:52;;;;;;;0.40;0.40;;;13.30;99.90;;;;;;5033555;28;20201;-62
2022/10/25 00:25:18;;;;;;;0.43;0.43;;;13.30;99.90;;;;;;5032695;28;20262;-62
2022/10/25 00:27:45;;;;;;;0.47;0.47;;;13.30;99.90;;;;;;5033495;28;20221;-62
2022/10/25 00:30:13;;;;;;;0.50;0.50;;;13.30;99.90;;;;;;5033431;28;20215;-63
2022/10/25 00:32:40;;;;;;;0.57;0.57;;;13.30;99.90;;;;;;5033127;28;20283;-63
2022/10/25 00:35:07;;;;;;;0.67;0.67;;;13.30;99.90;;;;;;5041541;28;20706;-61
2022/10/25 00:37:36;;;;;;;0.30;0.30;;;13.40;99.90;;;;;;5029902;28;20715;-63
2022/10/25 00:40:03;;;;;;;0.37;0.37;;;13.30;99.90;;;;;;5026782;28;20651;-62
2022/10/25 00:42:30;;;;;;;0.40;0.40;;;13.40;99.90;;;;;;5033150;28;20201;-62
2022/10/25 00:45:00;;;;;;;0.60;0.60;;;13.50;99.90;;;;;;5033504;28;20220;-61
2022/10/25 00:47:44;;;;;;;0.90;0.60;;;13.50;99.90;;;;;;5031869;28;20220;-62
2022/10/25 00:50:30;;;;;;;0.70;0.70;;;13.50;99.90;;;;;;5049157;28;20204;-61
2022/10/25 00:53:05;;;;;;;0.60;0.60;;;13.50;99.90;;;;;;5049272;28;20193;-62
2022/10/25 00:55:33;;;;;;;1.23;0.60;;;13.50;99.90;;;;;;5043923;28;20292;-62
2022/10/25 00:58:03;;;;;;;0.50;0.50;;;13.40;99.90;;;;;;5045041;28;20263;-62
2022/10/25 01:00:30;;;;;;;0.80;0.53;;;13.40;99.90;;;;;;5037824;28;20205;-62
2022/10/25 01:02:57;;;;;;;0.73;0.60;;;13.50;99.90;;;;;;5033641;28;20209;-62
2022/10/25 01:05:24;;;;;;;0.50;0.50;;;13.50;99.90;;;;;;5034065;28;20228;-61
2022/10/25 01:07:51;;;;;;;0.93;0.70;;;13.60;99.90;;;;;;5033610;28;20220;-64
2022/10/25 01:10:20;;;;;;;0.60;0.60;;;13.60;99.90;;;;;;5033532;28;20228;-64
2022/10/25 01:12:46;;;;;;;0.63;0.53;;;13.50;99.90;;;;;;5033110;28;20238;-64
2022/10/25 01:15:13;;;;;;;0.60;0.60;;;13.50;99.90;;;;;;5033797;28;20205;-62
2022/10/25 01:17:49;;;;;;;0.43;0.43;;;13.50;99.90;;;;;;5033457;28;20225;-62
2022/10/25 01:20:48;;;;;;;0.80;0.77;;;13.60;99.90;;;;;;5033244;28;20287;-64
2022/10/25 01:23:37;;;;;;;0.70;0.70;;;13.60;99.90;;;;;;5027624;28;20248;-63
2022/10/25 01:26:44;;;;;;;0.60;0.60;;;13.60;99.90;;;;;;5031482;28;20303;-63
2022/10/25 01:29:37;;;;;;;0.70;0.70;;;13.50;99.90;;;;;;5022194;28;20221;-63
2022/10/25 01:32:11;;;;;;;1.73;0.70;;;13.50;99.90;;;;;;5024238;28;20211;-63
2022/10/25 01:34:44;;;;;;;0.60;0.60;;;13.60;99.90;;;;;;5033339;28;20200;-63
2022/10/25 01:37:17;;;;;;;0.60;0.60;;;13.60;99.90;;;;;;5032458;28;20201;-63
2022/10/25 01:39:53;;;;;;;0.80;0.70;;;13.60;99.90;;;;;;5012823;28;20204;-63
2022/10/25 01:42:28;;;;;;;0.97;0.90;;;13.50;99.90;;;;;;5013275;28;20207;-63
2022/10/25 01:45:06;;;;;;;0.50;0.50;;;13.50;99.90;;;;;;5016814;28;20224;-62
2022/10/25 01:47:41;;;;;;;0.43;0.43;;;13.50;99.90;;;;;;5012426;28;20224;-63
2022/10/25 01:50:12;;;;;;;0.93;0.83;;;13.50;99.90;;;;;;5013006;28;20284;-62
2022/10/25 01:52:39;;;;;;;0.73;0.73;;;13.50;99.90;;;;;;5012875;28;20304;-62
2022/10/25 01:55:10;;;;;;;1.37;0.80;;;13.50;99.90;;;;;;5015495;28;20207;-62
2022/10/25 01:57:57;;;;;;;0.57;0.57;;;13.50;99.90;;;;;;5015420;28;20251;-62
2022/10/25 02:00:24;;;;;;;0.60;0.60;;;13.50;99.90;;;;;;5018013;28;20216;-62
2022/10/25 02:03:05;;;;;;;0.60;0.60;;;13.40;99.90;;;;;;5020555;28;20201;-62
2022/10/25 02:05:38;;;;;;;0.60;0.60;;;13.50;99.90;;;;;;5016106;28;20664;-62
2022/10/25 02:08:12;;;;;;;0.90;0.83;;;13.40;99.90;;;;;;5013904;28;20773;-63
2022/10/25 02:10:42;;;;;;;0.60;0.60;;;13.40;99.90;;;;;;5012159;28;20201;-62
2022/10/25 02:13:20;;;;;;;1.13;0.70;;;13.40;99.90;;;;;;5011890;28;20288;-62
2022/10/25 02:15:55;;;;;;;0.70;0.70;;;13.40;99.90;;;;;;5011964;28;20675;-63
2022/10/25 02:18:28;;;;;;;0.70;0.70;;;13.40;99.90;;;;;;5011912;28;20221;-62
2022/10/25 02:20:56;;;;;;;0.70;0.70;;;13.40;99.90;;;;;;5012065;28;20203;-63
2022/10/25 02:23:24;;;;;;;0.63;0.63;;;13.40;99.90;;;;;;5011911;28;20547;-62
2022/10/25 02:25:53;;;;;;;1.07;0.70;;;13.40;99.90;;;;;;5012179;28;20213;-62
2022/10/25 02:28:24;;;;;;;0.87;0.87;;;13.40;99.90;;;;;;5012264;28;20217;-62
2022/10/25 02:30:53;;;;;;;1.10;0.80;;;13.30;99.90;;;;;;5012842;28;20679;-62
2022/10/25 02:33:20;;;;;;;0.70;0.70;;;13.30;99.90;;;;;;5016633;28;20198;-62
2022/10/25 02:36:06;;;;;;;0.63;0.63;;;13.30;99.90;;;;;;5013515;28;20201;-62
2022/10/25 02:38:34;;;;;;;0.57;0.57;;;13.30;99.90;;;;;;5014418;28;20725;-62
2022/10/25 02:41:03;;;;;;;0.70;0.70;;;13.30;99.90;;;;;;5012047;28;20201;-63
2022/10/25 02:43:30;;;;;;;0.63;0.60;;;13.30;99.90;;;;;;5011515;28;20208;-62
2022/10/25 02:45:57;;;;;;;1.03;0.87;;;13.30;99.90;;;;;;5011784;28;20597;-62
2022/10/25 02:48:24;;;;;;;0.90;0.80;;;13.20;99.90;;;;;;5012140;28;20227;-62
2022/10/25 02:50:51;;;;;;;0.80;0.80;;;13.20;99.90;;;;;;5012236;28;20204;-63
2022/10/25 02:53:19;;;;;;;0.70;0.70;;;13.20;99.90;;;;;;5006789;28;20217;-63
2022/10/25 02:55:46;;;;;;;0.70;0.70;;;13.20;99.90;;;;;;5011981;28;20198;-63
2022/10/25 02:58:13;;;;;;;0.70;0.60;;;13.20;99.90;;;;;;5011416;28;20263;-63
2022/10/25 03:00:40;;;;;;;0.60;0.60;;;13.20;99.90;;;;;;5011961;28;20578;-63
2022/10/25 03:03:06;;;;;;;0.80;0.80;;;13.20;99.90;;;;;;5011273;28;20210;-64
2022/10/25 03:05:33;;;;;;;0.70;0.70;;;13.20;99.90;;;;;;5013126;28;20315;-63
2022/10/25 03:08:00;;;;;;;1.37;1.13;;;13.20;99.90;;;;;;5011780;28;20221;-62
2022/10/25 03:10:28;;;;;;;0.67;0.67;;;13.10;99.90;;;;;;5012997;28;20198;-62
2022/10/25 03:12:55;;;;;;;1.00;1.00;;;13.10;99.90;;;;;;5006885;28;20212;-62
2022/10/25 03:15:22;;;;;;;0.70;0.70;;;13.10;99.90;;;;;;5015193;28;20201;-62
2022/10/25 03:17:48;;;;;;;0.60;0.60;;;13.10;99.90;;;;;;5015556;28;20233;-62
2022/10/25 03:20:15;;;;;;;0.83;0.83;;;13.10;99.90;;;;;;5015457;28;20304;-63
2022/10/25 03:22:42;;;;;;;0.80;0.80;;;13.10;99.90;;;;;;5013469;28;20212;-62
2022/10/25 03:25:09;;;;;;;0.83;0.80;;;13.10;99.90;;;;;;5014947;28;20213;-63
2022/10/25 03:27:37;;;;;;;0.90;0.90;;;13.10;99.90;;;;;;5015060;28;20237;-63
2022/10/25 03:30:05;;;;;;;0.93;0.80;;;13.10;99.90;;;;;;5015405;28;20197;-64
2022/10/25 03:32:32;;;;;;;0.83;0.70;;;13.00;99.90;;;;;;5014890;28;20729;-62
2022/10/25 03:34:58;;;;;;;1.67;0.80;;;13.00;99.90;;;;;;5016489;28;20204;-61
2022/10/25 03:37:25;;;;;;;0.73;0.70;;;12.90;99.90;;;;;;5015993;28;20587;-62
2022/10/25 03:39:53;;;;;;;0.73;0.73;;;12.90;99.90;;;;;;5016194;28;20202;-62
2022/10/25 03:42:20;;;;;;;0.70;0.70;;;12.90;99.90;;;;;;5017146;28;20693;-64
2022/10/25 03:44:49;;;;;;;0.70;0.70;;;12.90;99.90;;;;;;5020260;28;20233;-63
2022/10/25 03:47:16;;;;;;;0.80;0.80;;;12.80;99.90;;;;;;5025721;28;20244;-63
2022/10/25 03:49:43;;;;;;;0.80;0.80;;;12.90;99.90;;;;;;5028046;28;20213;-63
2022/10/25 03:52:10;;;;;;;0.80;0.80;;;12.80;99.90;;;;;;5028551;28;20274;-62
2022/10/25 03:54:37;;;;;;;1.33;1.10;;;12.80;99.90;;;;;;5028559;28;20209;-62
2022/10/25 03:57:04;;;;;;;0.87;0.87;;;12.80;99.90;;;;;;5023701;28;20233;-62
2022/10/25 03:59:31;;;;;;;0.80;0.80;;;12.70;99.90;;;;;;5017332;28;20197;-62
2022/10/25 04:02:00;;;;;;;1.27;0.77;;;12.70;99.90;;;;;;5013781;28;20205;-64
2022/10/25 04:04:27;;;;;;;0.90;0.90;;;12.70;99.90;;;;;;5014603;28;20205;-62
2022/10/25 04:06:54;;;;;;;0.80;0.80;;;12.70;99.90;;;;;;5010292;28;20221;-62
2022/10/25 04:09:21;;;;;;;0.70;0.70;;;12.70;99.90;;;;;;5014137;28;20225;-62
2022/10/25 04:11:48;;;;;;;0.80;0.80;;;12.60;99.90;;;;;;5014022;28;20497;-62
2022/10/25 04:14:15;;;;;;;0.80;0.80;;;12.60;99.90;;;;;;5013921;28;20231;-61
2022/10/25 04:16:41;;;;;;;0.60;0.60;;;12.60;99.90;;;;;;5014288;28;20201;-62
2022/10/25 04:19:10;;;;;;;0.90;0.90;;;12.60;99.90;;;;;;5018941;28;20697;-62
2022/10/25 04:21:37;;;;;;;0.80;0.80;;;12.70;99.90;;;;;;5012403;28;20209;-62
2022/10/25 04:24:04;;;;;;;0.90;0.90;;;12.60;99.90;;;;;;5014256;28;20545;-62
2022/10/25 04:26:33;;;;;;;1.10;1.00;;;12.70;99.90;;;;;;5013469;28;20718;-62
2022/10/25 04:29:00;;;;;;;1.00;1.00;;;12.70;99.90;;;;;;5014104;28;20304;-62
2022/10/25 04:31:27;;;;;;;1.10;1.00;;;12.60;99.90;;;;;;5014037;28;20229;-62
2022/10/25 04:33:56;;;;;;;0.90;0.90;;;12.60;99.90;;;;;;5013768;28;20208;-62
2022/10/25 04:36:24;;;;;;;1.13;1.03;;;12.60;99.90;;;;;;5015216;28;20212;-62
2022/10/25 04:38:52;;;;;;;1.17;1.10;;;12.60;99.90;;;;;;5013388;28;20233;-61
2022/10/25 04:41:20;;;;;;;0.80;0.70;;;12.60;99.90;;;;;;5010521;28;20693;-62
2022/10/25 04:43:47;;;;;;;0.93;0.80;;;12.60;99.90;;;;;;5014256;28;20197;-62
2022/10/25 04:46:15;;;;;;;0.80;0.80;;;12.50;99.90;;;;;;5009755;28;20217;-62
2022/10/25 04:48:42;;;;;;;0.80;0.80;;;12.50;99.90;;;;;;5013179;28;20227;-62
2022/10/25 04:51:11;;;;;;;0.70;0.70;;;12.50;99.90;;;;;;5013035;28;20208;-62
2022/10/25 04:53:40;;;;;;;0.77;0.77;;;12.50;99.90;;;;;;5013018;28;20213;-62
2022/10/25 04:56:08;;;;;;;1.00;0.90;;;12.50;99.90;;;;;;5013177;28;20197;-62
2022/10/25 04:58:36;;;;;;;0.93;0.90;;;12.60;99.90;;;;;;5012684;28;20245;-62
2022/10/25 05:01:05;;;;;;;0.60;0.60;;;12.60;99.90;;;;;;5013176;28;20208;-62
2022/10/25 05:03:32;;;;;;;0.93;0.90;;;12.60;99.90;;;;;;5012566;28;20197;-62
2022/10/25 05:06:08;;;;;;;1.00;0.90;;;12.70;99.90;;;;;;5012424;28;20707;-62
2022/10/25 05:08:35;;;;;;;0.90;0.90;;;12.80;99.90;;;;;;5013024;28;20589;-62
2022/10/25 05:11:03;;;;;;;0.90;0.90;;;12.80;99.90;;;;;;5013638;28;20256;-64
2022/10/25 05:13:34;;;;;;;0.90;0.90;;;12.80;99.90;;;;;;5011557;28;20197;-62
2022/10/25 05:16:01;;;;;;;0.90;0.90;;;12.90;99.90;;;;;;5013063;28;20311;-63
2022/10/25 05:18:29;;;;;;;1.20;1.10;;;12.80;99.90;;;;;;5013894;28;20225;-63
2022/10/25 05:20:59;;;;;;;1.07;0.97;;;12.80;99.90;;;;;;5014607;28;20205;-63
2022/10/25 05:23:27;;;;;;;0.93;0.90;;;12.80;99.90;;;;;;5015767;28;20269;-62
2022/10/25 05:26:03;;;;;;;1.17;1.00;;;12.80;99.90;;;;;;5031680;28;20311;-62
2022/10/25 05:28:29;;;;;;;0.87;0.80;;;12.80;99.90;;;;;;5028592;28;20245;-64
2022/10/25 05:30:56;;;;;;;1.07;0.97;;;12.80;99.90;;;;;;5010764;28;20208;-64
2022/10/25 05:33:23;;;;;;;1.07;0.97;;;12.80;99.90;;;;;;5009233;28;20549;-62
2022/10/25 05:35:50;;;;;;;0.93;0.90;;;12.80;99.90;;;;;;5014010;28;20198;-63
2022/10/25 05:38:17;;;;;;;1.00;1.00;;;12.80;99.90;;;;;;5006907;28;20224;-62
2022/10/25 05:40:43;;;;;;;0.90;0.90;;;12.80;99.90;;;;;;5006653;28;20645;-62
2022/10/25 05:43:12;;;;;;;1.30;0.90;;;12.90;99.90;;;;;;5012933;28;20212;-63
2022/10/25 05:45:38;;;;;;;0.87;0.87;;;12.90;99.90;;;;;;5014806;28;20226;-62
2022/10/25 05:48:05;;;;;;;1.27;1.20;;;12.90;99.90;;;;;;5013200;28;20224;-65
2022/10/25 05:50:32;;;;;;;0.80;0.80;;;12.90;99.90;;;;;;5013133;28;20201;-62
2022/10/25 05:52:59;;;;;;;1.27;1.00;;;12.80;99.90;;;;;;5007336;28;20209;-62
2022/10/25 05:55:25;;;;;;;1.00;0.90;;;12.80;99.90;;;;;;5013769;28;20212;-62
2022/10/25 05:57:52;;;;;;;2.40;1.10;;;12.80;99.90;;;;;;5013107;28;20586;-62
2022/10/25 06:00:21;;;;;;;1.00;1.00;;;12.70;99.90;;;;;;5011639;28;20567;-63
2022/10/25 06:02:47;;;;;;;1.13;1.00;;;12.60;99.90;;;;;;5013129;28;20718;-63
2022/10/25 06:05:14;;;;;;;1.00;1.00;;;12.60;99.90;;;;;;5013443;28;20223;-62
2022/10/25 06:07:41;;;;;;;1.10;1.10;;;12.50;99.90;;;;;;5013432;28;20715;-61
2022/10/25 06:10:09;;;;;;;1.30;1.20;;;12.50;99.90;;;;;;5012954;28;20201;-62
2022/10/25 06:12:36;;;;;;;1.17;1.00;;;12.50;99.90;;;;;;5011969;28;20300;-63
2022/10/25 06:15:02;;;;;;;0.87;0.87;;;12.40;99.90;;;;;;5011746;28;20212;-62
2022/10/25 06:17:31;;;;;;;1.13;1.00;;;12.40;99.90;;;;;;5012090;28;20538;-62
2022/10/25 06:19:57;;;;;;;1.30;1.20;;;12.40;99.90;;;;;;5012771;28;20303;-62
2022/10/25 06:22:24;;;;;;;1.10;1.00;;;12.30;99.90;;;;;;5012673;28;20200;-62
2022/10/25 06:24:51;;;;;;;1.03;1.03;;;12.30;99.90;;;;;;5012274;28;20211;-63
2022/10/25 06:27:18;;;;;;;0.93;0.93;;;12.30;99.90;;;;;;5011482;28;20231;-62
2022/10/25 06:29:45;;;;;;;1.20;1.10;;;12.30;99.90;;;;;;5012009;28;20232;-61
2022/10/25 06:32:12;;;;;;;1.03;0.93;;;12.30;99.90;;;;;;5010168;28;20201;-64
2022/10/25 06:34:40;;;;;;;1.30;1.20;;;12.40;99.90;;;;;;5011475;28;20655;-61
2022/10/25 06:37:07;;;;;;;0.90;0.90;;;12.50;99.90;;;;;;5011854;28;20201;-63
2022/10/25 06:39:34;;;;;;;0.90;0.90;;;12.50;99.90;;;;;;5012175;28;20272;-63
2022/10/25 06:42:01;;;;;;;0.63;0.63;;;12.50;99.90;;;;;;5006666;28;20203;-62
2022/10/25 06:44:27;;;;;;;1.20;1.10;;;12.50;99.90;;;;;;5012765;28;20201;-62
2022/10/25 06:46:54;;;;;;;1.10;1.10;;;12.50;99.90;;;;;;5014843;28;20660;-61
2022/10/25 06:49:21;;;;;;;0.70;0.70;;;12.50;99.90;;;;;;5015711;28;20225;-63
2022/10/25 06:51:49;;;;;;;1.20;1.10;;;12.50;99.90;;;;;;5007515;28;20214;-62
2022/10/25 06:54:16;;;;;;;1.00;1.00;;;12.40;99.90;;;;;;5011089;28;20210;-62
2022/10/25 06:56:43;;;;;;;1.13;1.03;;;12.40;99.90;;;;;;5015259;28;20201;-61
2022/10/25 06:59:10;;;;;;;1.07;0.97;;;12.50;99.90;;;;;;5018566;28;20255;-62
2022/10/25 07:01:36;;;;;;;1.30;1.00;;;12.50;99.90;;;;;;5016776;28;20211;-62
2022/10/25 07:04:03;;;;;;;1.07;1.07;;;12.60;99.90;;;;;;5018617;28;20700;-62
2022/10/25 07:06:34;;;;;;;1.20;1.10;;;12.70;99.90;;;;;;5017460;28;20225;-63
2022/10/25 07:09:02;;;;;;;0.83;0.83;;;12.80;99.90;;;;;;5017643;28;20711;-62
2022/10/25 07:11:31;;;;;;;0.80;0.80;;;12.90;99.90;;;;;;5016235;28;20274;-63
2022/10/25 07:13:58;;;;;;;1.23;1.07;;;12.90;99.90;;;;;;5015754;28;20205;-63
2022/10/25 07:16:26;;;;;;;1.60;1.00;;;12.90;99.90;;;;;;5015873;28;20197;-61
2022/10/25 07:18:58;;;;;;;1.30;1.20;;;13.00;99.90;;;;;;5015426;28;20936;-61
2022/10/25 07:21:25;;;;;;;0.60;0.60;;;13.00;99.90;;;;;;5016912;28;20201;-62
2022/10/25 07:23:52;;;;;;;0.77;0.70;;;13.10;99.90;;;;;;5023184;28;20600;-62
2022/10/25 07:26:22;;;;;;;0.60;0.60;;;13.10;99.90;;;;;;5024820;28;20286;-63
2022/10/25 07:28:51;;;;;;;0.90;0.77;;;13.10;99.90;;;;;;5022869;28;20765;-63
2022/10/25 07:31:20;;;;;;;0.60;0.60;;;13.10;99.90;;;;;;5016751;28;20201;-63
2022/10/25 07:33:48;;;;;;;0.90;0.90;;;13.10;99.90;;;;;;5018006;28;20211;-64
2022/10/25 07:36:14;;;;;;;0.97;0.80;;;13.10;99.90;;;;;;5028609;28;20201;-63
2022/10/25 07:38:41;;;;;;;1.03;0.90;;;13.20;99.90;;;;;;5015082;28;20222;-63
2022/10/25 07:41:09;;;;;;;0.93;0.87;;;13.30;99.90;;;;;;5015219;28;20197;-63
2022/10/25 07:43:37;;;;;;;0.77;0.77;;;13.40;99.90;;;;;;5014661;28;20215;-63
2022/10/25 07:46:05;;;;;;;0.70;0.70;;;13.50;99.90;;;;;;5014610;28;20296;-63
2022/10/25 07:48:32;;;;;;;0.93;0.93;;;13.50;99.90;;;;;;5014623;28;20271;-62
2022/10/25 07:51:03;;;;;;;0.67;0.67;;;13.60;99.90;;;;;;5017904;28;20292;-63
2022/10/25 07:53:29;;;;;;;0.90;0.90;;;13.60;99.90;;;;;;5021849;28;20673;-62
2022/10/25 07:55:56;;;;;;;1.00;1.00;;;13.60;99.90;;;;;;5014566;28;20202;-62
2022/10/25 07:58:23;;;;;;;0.60;0.60;;;13.80;99.90;;;;;;5014022;28;20229;-63
2022/10/25 08:00:52;;;;;;;0.70;0.70;;;14.00;99.90;;;;;;5014021;28;20271;-62
2022/10/25 08:03:19;;;;;;;0.77;0.77;;;14.10;99.90;;;;;;5014189;28;20557;-62
2022/10/25 08:05:47;;;;;;;0.70;0.70;;;14.30;99.90;;;;;;5013045;28;20206;-61
2022/10/25 08:08:15;;;;;;;0.83;0.83;;;14.50;99.90;;;;;;5014245;28;20236;-64
2022/10/25 08:10:43;;;;;;;0.97;0.93;;;14.70;99.90;;;;;;5012260;28;20201;-62
2022/10/25 08:13:10;;;;;;;1.07;0.70;;;14.90;99.90;;;;;;5013877;28;20205;-63
2022/10/25 08:15:36;;;;;;;0.63;0.60;;;15.00;99.90;;;;;;5006066;28;20205;-62
2022/10/25 08:18:06;;;;;;;0.80;0.80;;;15.20;99.90;;;;;;5014065;28;20707;-62
2022/10/25 08:20:33;;;;;;;0.80;0.80;;;15.40;99.90;;;;;;5012248;28;20759;-63
2022/10/25 08:23:01;;;;;;;1.07;0.80;;;15.70;99.90;;;;;;5007589;28;20204;-63
2022/10/25 08:25:28;;;;;;;0.80;0.80;;;15.80;99.90;;;;;;5008670;28;20235;-63
2022/10/25 08:27:55;;;;;;;0.90;0.90;;;15.90;99.90;;;;;;5002385;28;20233;-62
2022/10/25 08:30:22;;;;;;;0.87;0.87;;;16.00;99.90;;;;;;5012302;28;20201;-63
2022/10/25 08:32:49;;;;;;;0.77;0.77;;;15.90;99.90;;;;;;5013285;28;20697;-64
2022/10/25 08:35:17;;;;;;;0.70;0.70;;;15.70;99.90;;;;;;5010509;28;20209;-61
2022/10/25 08:37:44;;;;;;;0.90;0.90;;;15.70;99.90;;;;;;5012525;28;20219;-62
2022/10/25 08:40:17;;;;;;;0.80;0.80;;;15.60;99.90;;;;;;5008966;28;20208;-62
2022/10/25 08:42:57;;;;;;;0.80;0.80;;;15.60;99.90;;;;;;5011283;28;20201;-61
2022/10/25 08:45:31;;;;;;;1.57;0.97;;;15.90;99.90;;;;;;5011165;28;20217;-62
2022/10/25 08:47:58;;;;;;;0.70;0.70;;;16.20;99.90;;;;;;5005076;28;20260;-63
2022/10/25 08:50:37;;;;;;;0.80;0.80;;;16.30;99.90;;;;;;5003221;28;20609;-63
2022/10/25 08:53:08;;;;;;;0.90;0.90;;;16.50;99.90;;;;;;5007831;28;20205;-63
2022/10/25 08:55:37;;;;;;;1.00;0.90;;;16.70;99.90;;;;;;5010162;28;20212;-63
2022/10/25 08:58:11;;;;;;;0.90;0.90;;;16.80;99.90;;;;;;5013055;28;20225;-62
2022/10/25 09:00:40;;;;;;;0.67;0.67;;;17.10;99.90;;;;;;5016048;28;20223;-64
2022/10/25 09:03:13;;;;;;;1.80;0.80;;;17.20;99.90;;;;;;5012960;28;20198;-62
2022/10/25 09:05:47;;;;;;;1.13;0.70;;;17.40;99.90;;;;;;5015605;28;20201;-62
2022/10/25 09:08:49;;;;;;;0.87;0.87;;;17.60;99.90;;;;;;5012652;28;20372;-62
2022/10/25 09:11:26;;;;;;;0.90;0.80;;;17.80;99.90;;;;;;5008294;28;20679;-62
2022/10/25 09:13:59;;;;;;;1.57;1.20;;;18.00;99.90;;;;;;5018880;28;20215;-63
2022/10/25 09:16:33;;;;;;;0.80;0.80;;;18.20;99.90;;;;;;5016209;28;20284;-63
2022/10/25 09:19:00;;;;;;;0.73;0.73;;;18.20;99.90;;;;;;5016701;28;20231;-63
2022/10/25 09:21:40;;;;;;;1.07;0.97;;;18.40;99.90;;;;;;5016788;28;20205;-64
2022/10/25 09:24:18;;;;;;;0.83;0.83;;;18.50;99.90;;;;;;5010589;28;20201;-63
2022/10/25 09:26:54;;;;;;;1.10;1.00;;;18.60;99.90;;;;;;5012691;28;20209;-62
2022/10/25 09:29:28;;;;;;;0.60;0.60;;;18.70;99.90;;;;;;5012719;28;20227;-62
2022/10/25 09:31:58;;;;;;;0.70;0.70;;;18.90;99.90;;;;;;4998538;28;20689;-62
2022/10/25 09:34:29;;;;;;;0.70;0.70;;;19.00;99.90;;;;;;5012608;28;20309;-61
2022/10/25 09:37:04;;;;;;;0.80;0.80;;;19.20;99.90;;;;;;5009542;28;20208;-62
2022/10/25 09:39:37;;;;;;;0.97;0.97;;;19.20;99.90;;;;;;5012464;28;20212;-62
2022/10/25 09:42:06;;;;;;;1.07;0.97;;;19.30;99.90;;;;;;5012194;28;20211;-62
2022/10/25 09:44:38;;;;;;;0.90;0.90;;;19.40;99.90;;;;;;5012249;28;20197;-62
2022/10/25 09:47:21;;;;;;;0.80;0.80;;;19.50;99.90;;;;;;5012213;28;20221;-63
2022/10/25 09:49:54;;;;;;;1.10;1.00;;;19.60;99.90;;;;;;5011770;28;20216;-63
2022/10/25 09:52:29;;;;;;;0.70;0.70;;;19.70;99.90;;;;;;5010153;28;20205;-62
2022/10/25 09:55:14;;;;;;;1.33;0.60;;;19.70;99.90;;;;;;5012038;28;20208;-62
2022/10/25 09:57:41;;;;;;;2.23;0.87;;;19.80;99.90;;;;;;5013390;28;20239;-64
2022/10/25 10:00:13;;;;;;;1.00;0.90;;;19.90;99.90;;;;;;5030854;28;20228;-63
2022/10/25 10:02:40;;;;;;;0.77;0.77;;;19.90;99.90;;;;;;5028013;28;20432;-63
2022/10/25 10:05:14;;;;;;;0.70;0.70;;;20.00;99.90;;;;;;5014854;28;20212;-64
2022/10/25 10:07:42;;;;;;;0.80;0.80;;;20.00;99.90;;;;;;5011384;28;20233;-62
2022/10/25 10:10:13;;;;;;;0.73;0.73;;;20.00;99.90;;;;;;5013058;28;20201;-62
2022/10/25 10:12:43;;;;;;;0.93;0.90;;;20.10;99.90;;;;;;5012441;28;20209;-62
2022/10/25 10:15:17;;;;;;;0.73;0.73;;;20.00;99.90;;;;;;5012136;28;20201;-64
2022/10/25 10:17:43;;;;;;;1.57;0.80;;;20.00;99.90;;;;;;5010217;28;20225;-62
2022/10/25 10:20:14;;;;;;;0.67;0.67;;;20.00;99.90;;;;;;5011970;28;20208;-62
2022/10/25 10:22:49;;;;;;;0.80;0.80;;;20.10;99.90;;;;;;5012122;28;20284;-63
2022/10/25 10:25:19;;;;;;;0.60;0.60;;;20.00;99.90;;;;;;5009671;28;20228;-62
2022/10/25 10:27:47;;;;;;;0.80;0.80;;;20.00;99.90;;;;;;5012052;28;20714;-62
2022/10/25 10:30:22;;;;;;;0.60;0.60;;;20.10;99.90;;;;;;5012335;28;20209;-62
2022/10/25 10:32:54;;;;;;;0.60;0.60;;;20.20;99.90;;;;;;5012584;28;20212;-63
2022/10/25 10:35:27;;;;;;;0.97;0.80;;;20.20;99.90;;;;;;5017649;28;20201;-62
2022/10/25 10:38:13;;;;;;;0.80;0.80;;;20.30;99.90;;;;;;5015595;28;20213;-62
2022/10/25 10:40:40;;;;;;;0.70;0.70;;;20.30;99.90;;;;;;5017143;28;20205;-63
2022/10/25 10:43:23;;;;;;;0.70;0.70;;;20.40;99.90;;;;;;5013608;28;20296;-64
2022/10/25 10:45:51;;;;;;;0.97;0.97;;;20.40;99.90;;;;;;5011760;28;20205;-64
2022/10/25 10:48:20;;;;;;;1.07;1.00;;;20.30;99.90;;;;;;5022138;28;20259;-62
2022/10/25 10:50:50;;;;;;;1.13;1.00;;;20.30;99.90;;;;;;5012491;28;20213;-63
2022/10/25 10:53:21;;;;;;;0.93;0.83;;;20.40;99.90;;;;;;5011871;28;20212;-63
2022/10/25 10:55:50;;;;;;;0.80;0.80;;;20.50;99.90;;;;;;5011948;28;20606;-63
2022/10/25 10:58:22;;;;;;;0.70;0.70;;;20.50;99.90;;;;;;5004161;28;20225;-63
2022/10/25 11:00:51;;;;;;;0.70;0.70;;;20.60;99.90;;;;;;5013164;28;20256;-62
2022/10/25 11:03:39;;;;;;;0.90;0.90;;;20.70;99.90;;;;;;5012967;28;20220;-62
2022/10/25 11:06:08;;;;;;;1.40;1.00;;;20.90;99.90;;;;;;5011241;28;20293;-66
2022/10/25 11:08:36;;;;;;;0.80;0.80;;;21.00;99.90;;;;;;5012176;28;20225;-62
2022/10/25 11:11:18;;;;;;;0.70;0.70;;;21.10;99.90;;;;;;5009842;28;20210;-63
2022/10/25 11:13:53;;;;;;;0.73;0.73;;;21.20;99.90;;;;;;5010704;28;20220;-63
2022/10/25 11:16:42;;;;;;;0.87;0.87;;;21.20;99.90;;;;;;5004973;28;20208;-63
2022/10/25 11:19:39;;;;;;;0.90;0.90;;;21.10;99.90;;;;;;5011121;28;20221;-62
2022/10/25 11:22:17;;;;;;;0.63;0.63;;;20.90;99.90;;;;;;5009456;28;20601;-63
2022/10/25 11:25:01;;;;;;;0.82;0.82;;;20.90;99.90;;;;;;5009343;28;20215;-62
2022/10/25 11:27:35;;;;;;;0.60;0.60;;;20.80;99.90;;;;;;5004027;28;20232;-63
2022/10/25 11:30:09;;;;;;;0.93;0.90;;;20.80;99.90;;;;;;5003071;28;20208;-62
2022/10/25 11:33:17;;;;;;;0.80;0.80;;;20.70;99.90;;;;;;5006984;28;20197;-62
2022/10/25 11:36:07;;;;;;;0.73;0.73;;;20.70;99.90;;;;;;5015826;28;20216;-62
2022/10/25 11:38:47;;;;;;;0.80;0.80;;;20.80;99.90;;;;;;5013238;28;20221;-62
2022/10/25 11:41:27;;;;;;;0.80;0.80;;;20.90;99.90;;;;;;5013748;28;20208;-63
2022/10/25 11:44:08;;;;;;;1.10;0.77;;;20.90;99.90;;;;;;5012039;28;20208;-62
2022/10/25 11:46:43;;;;;;;0.70;0.70;;;20.90;99.90;;;;;;5013425;28;20232;-62
2022/10/25 11:49:28;;;;;;;0.53;0.53;;;20.90;99.90;;;;;;5014672;28;20251;-62
2022/10/25 11:52:14;;;;;;;1.25;0.82;;;20.90;99.90;;;;;;5014470;28;20228;-62
2022/10/25 11:54:45;;;;;;;0.60;0.60;;;21.00;99.90;;;;;;5015151;28;20561;-62
2022/10/25 11:57:27;;;;;;;0.93;0.93;;;21.00;99.90;;;;;;5013121;28;20201;-62
2022/10/25 12:00:01;;;;;;;1.07;0.77;;;21.10;99.90;;;;;;5015911;28;20236;-64
2022/10/25 12:02:58;;;;;;;1.00;0.90;;;21.10;99.90;;;;;;5010632;28;20200;-62
2022/10/25 12:05:32;;;;;;;0.70;0.70;;;21.00;99.90;;;;;;5009392;28;20233;-62
2022/10/25 12:08:09;;;;;;;0.80;0.80;;;21.00;99.90;;;;;;5011005;28;20228;-61
2022/10/25 12:10:39;;;;;;;0.80;0.80;;;21.10;99.90;;;;;;5010220;28;20285;-63
2022/10/25 12:13:14;;;;;;;1.00;1.00;;;21.10;99.90;;;;;;5012893;28;20202;-65
2022/10/25 12:15:45;;;;;;;0.80;0.80;;;21.20;99.90;;;;;;5013230;28;20205;-63
2022/10/25 12:18:16;;;;;;;0.83;0.83;;;21.30;99.90;;;;;;5013486;28;20218;-62
2022/10/25 12:20:45;;;;;;;1.63;0.90;;;21.30;99.90;;;;;;5013812;28;20201;-62
2022/10/25 12:23:16;;;;;;;0.80;0.80;;;21.20;99.90;;;;;;5013376;28;20207;-63
2022/10/25 12:25:46;;;;;;;0.80;0.80;;;21.10;99.90;;;;;;5014362;28;20202;-62
2022/10/25 12:28:23;;;;;;;0.80;0.80;;;21.10;99.90;;;;;;5014011;28;20231;-63
2022/10/25 12:30:53;;;;;;;0.67;0.67;;;21.20;99.90;;;;;;5013292;28;20278;-63
2022/10/25 12:33:30;;;;;;;0.60;0.60;;;21.10;99.90;;;;;;5013023;28;20208;-63
2022/10/25 12:36:01;;;;;;;0.70;0.70;;;20.90;99.90;;;;;;5005864;28;20580;-63
2022/10/25 12:38:33;;;;;;;0.70;0.70;;;20.90;99.90;;;;;;5013972;28;20232;-63
2022/10/25 12:41:04;;;;;;;0.47;0.47;;;21.00;99.90;;;;;;5006627;28;20197;-61
2022/10/25 12:43:36;;;;;;;0.60;0.60;;;21.10;99.90;;;;;;5003715;28;20215;-62
2022/10/25 12:46:36;;;;;;;0.87;0.87;;;21.20;99.90;;;;;;5013847;28;20208;-63
2022/10/25 12:49:32;;;;;;;0.67;0.67;;;21.30;99.90;;;;;;4961628;28;20233;-62
2022/10/25 12:52:15;;;;;;;0.70;0.70;;;21.30;99.90;;;;;;4979313;28;20280;-63
2022/10/25 12:55:09;;;;;;;0.80;0.80;;;21.40;99.90;;;;;;5013506;28;20664;-62
2022/10/25 12:57:43;;;;;;;0.87;0.87;;;21.50;99.90;;;;;;5008102;28;20609;-62
2022/10/25 13:00:14;;;;;;;1.43;0.90;;;21.40;99.90;;;;;;5013251;28;20209;-62
2022/10/25 13:03:08;;;;;;;0.63;0.63;;;21.50;99.90;;;;;;5014149;28;20205;-62
2022/10/25 13:06:02;;;;;;;0.87;0.73;;;21.40;99.90;;;;;;5013497;28;20311;-62
2022/10/25 13:08:31;;;;;;;0.80;0.80;;;21.50;99.90;;;;;;5007124;28;20231;-63